createdAt,value
2019-04-01T00:00:17.928Z,91.66
2019-04-01T00:01:18.490Z,91.75
2019-04-01T00:02:19.059Z,91.66
2019-04-01T00:03:19.626Z,91.66
2019-04-01T00:04:20.192Z,91.32
2019-04-01T00:05:20.812Z,91.46
2019-04-01T00:06:21.329Z,91.36
2019-04-01T00:07:21.899Z,91.08
2019-04-01T00:08:22.467Z,91.36
2019-04-01T00:09:23.035Z,91.36
2019-04-01T00:10:23.604Z,91.56
2019-04-01T00:11:24.175Z,90.98
2019-04-01T00:12:24.795Z,91.03
2019-04-01T00:13:25.412Z,90.65
2019-04-01T00:14:26.032Z,90.41
2019-04-01T00:15:26.656Z,90.84
2019-04-01T00:16:27.271Z,90.36
2019-04-01T00:17:27.839Z,90.17
2019-04-01T00:18:28.464Z,90.36
2019-04-01T00:19:29.030Z,90.65
2019-04-01T00:20:29.599Z,90.89
2019-04-01T00:21:30.169Z,90.41
2019-04-01T00:22:30.790Z,90.84
2019-04-01T00:23:31.329Z,90.75
2019-04-01T00:24:31.898Z,90.31
2019-04-01T00:25:32.471Z,90.55
2019-04-01T00:26:33.037Z,90.65
2019-04-01T00:27:33.607Z,90.84
2019-04-01T00:28:34.193Z,90.36
2019-04-01T00:29:34.800Z,90.45
2019-04-01T00:30:35.366Z,90.65
2019-04-01T00:31:35.989Z,90.65
2019-04-01T00:32:36.556Z,91.03
2019-04-01T00:33:37.129Z,91.52
2019-04-01T00:34:37.791Z,91.52
2019-04-01T00:35:38.363Z,91.42
2019-04-01T00:36:38.933Z,91.32
2019-04-01T00:37:39.554Z,91.42
2019-04-01T00:38:40.123Z,91.42
2019-04-01T00:39:40.745Z,91.13
2019-04-01T00:40:41.364Z,91.22
2019-04-01T00:41:41.937Z,91.22
2019-04-01T00:42:42.507Z,91.22
2019-04-01T00:43:43.077Z,91.22
2019-04-01T00:44:43.649Z,91.52
2019-04-01T00:45:44.220Z,91.13
2019-04-01T00:46:44.790Z,91.42
2019-04-01T00:47:45.360Z,91.03
2019-04-01T00:48:45.930Z,91.22
2019-04-01T00:49:46.549Z,91.61
2019-04-01T00:50:47.119Z,91.42
2019-04-01T00:51:47.746Z,91.61
2019-04-01T00:52:48.353Z,91.80
2019-04-01T00:53:48.924Z,91.61
2019-04-01T00:54:49.540Z,91.61
2019-04-01T00:55:50.112Z,91.71
2019-04-01T00:56:50.731Z,91.61
2019-04-01T00:57:51.302Z,91.03
2019-04-01T00:58:51.874Z,91.32
2019-04-01T00:59:52.440Z,91.52
2019-04-01T01:00:53.157Z,91.42
2019-04-01T01:01:53.729Z,91.71
2019-04-01T01:02:54.305Z,91.42
2019-04-01T01:03:54.872Z,91.99
2019-04-01T01:04:55.439Z,91.42
2019-04-01T01:05:56.010Z,91.90
2019-04-01T01:06:56.580Z,91.52
2019-04-01T01:07:57.151Z,91.61
2019-04-01T01:08:57.768Z,91.52
2019-04-01T01:09:58.388Z,91.61
2019-04-01T01:10:58.957Z,91.99
2019-04-01T01:11:59.584Z,92.09
2019-04-01T01:13:00.148Z,91.90
2019-04-01T01:14:00.719Z,92.09
2019-04-01T01:15:01.289Z,92.09
2019-04-01T01:16:01.857Z,92.09
2019-04-01T01:17:02.479Z,92.19
2019-04-01T01:18:03.046Z,91.80
2019-04-01T01:19:03.612Z,92.19
2019-04-01T01:20:04.186Z,92.38
2019-04-01T01:21:04.794Z,92.29
2019-04-01T01:22:05.362Z,92.19
2019-04-01T01:23:05.931Z,92.09
2019-04-01T01:24:06.503Z,92.19
2019-04-01T01:25:07.123Z,92.19
2019-04-01T01:26:07.693Z,92.38
2019-04-01T01:27:08.356Z,92.57
2019-04-01T01:28:08.997Z,92.57
2019-04-01T01:29:09.569Z,92.29
2019-04-01T01:30:10.136Z,92.38
2019-04-01T01:31:11.405Z,92.57
2019-04-01T01:32:11.980Z,92.67
2019-04-01T01:33:12.589Z,93.15
2019-04-01T01:34:13.159Z,93.05
2019-04-01T01:35:13.782Z,93.24
2019-04-01T01:36:14.351Z,93.34
2019-04-01T01:37:14.926Z,93.24
2019-04-01T01:38:15.551Z,93.63
2019-04-01T01:39:16.155Z,93.73
2019-04-01T01:40:16.743Z,93.44
2019-04-01T01:41:17.298Z,93.24
2019-04-01T01:42:17.916Z,93.34
2019-04-01T01:43:18.488Z,94.11
2019-04-01T01:44:19.109Z,94.11
2019-04-01T01:45:19.679Z,93.91
2019-04-01T01:46:20.247Z,94.01
2019-04-01T01:47:20.817Z,94.21
2019-04-01T01:48:21.431Z,94.01
2019-04-01T01:49:22.000Z,93.91
2019-04-01T01:50:22.620Z,94.40
2019-04-01T01:51:23.193Z,94.11
2019-04-01T01:52:23.964Z,93.73
2019-04-01T01:53:24.584Z,94.11
2019-04-01T01:54:25.155Z,94.11
2019-04-01T01:55:25.725Z,93.63
2019-04-01T01:56:26.294Z,94.21
2019-04-01T01:57:26.865Z,94.01
2019-04-01T01:58:27.434Z,94.21
2019-04-01T01:59:28.003Z,93.73
2019-04-01T02:00:28.577Z,94.21
2019-04-01T02:01:29.143Z,94.21
2019-04-01T02:02:29.715Z,93.63
2019-04-01T02:03:30.328Z,94.21
2019-04-01T02:04:30.901Z,94.21
2019-04-01T02:05:31.616Z,94.11
2019-04-01T02:06:32.185Z,93.91
2019-04-01T02:07:32.757Z,94.68
2019-04-01T02:08:33.325Z,94.40
2019-04-01T02:09:33.893Z,94.59
2019-04-01T02:10:34.510Z,94.78
2019-04-01T02:11:35.082Z,94.59
2019-04-01T02:12:35.650Z,94.30
2019-04-01T02:13:36.219Z,94.59
2019-04-01T02:14:36.790Z,94.59
2019-04-01T02:15:37.358Z,94.78
2019-04-01T02:16:37.977Z,94.49
2019-04-01T02:17:38.597Z,94.30
2019-04-01T02:18:39.168Z,94.40
2019-04-01T02:19:39.738Z,94.30
2019-04-01T02:20:40.306Z,94.21
2019-04-01T02:21:40.876Z,94.78
2019-04-01T02:22:41.445Z,94.68
2019-04-01T02:23:42.017Z,94.59
2019-04-01T02:24:42.587Z,94.78
2019-04-01T02:25:43.206Z,95.26
2019-04-01T02:26:43.926Z,94.93
2019-04-01T02:27:44.501Z,95.26
2019-04-01T02:28:45.069Z,95.07
2019-04-01T02:29:45.639Z,94.98
2019-04-01T02:30:46.210Z,94.83
2019-04-01T02:31:46.779Z,95.17
2019-04-01T02:32:47.348Z,95.12
2019-04-01T02:33:47.969Z,95.12
2019-04-01T02:34:48.540Z,95.03
2019-04-01T02:35:49.122Z,94.93
2019-04-01T02:36:49.679Z,95.03
2019-04-01T02:37:50.301Z,95.21
2019-04-01T02:38:50.870Z,94.93
2019-04-01T02:39:51.448Z,94.93
2019-04-01T02:40:52.005Z,95.03
2019-04-01T02:41:52.576Z,95.12
2019-04-01T02:42:53.186Z,95.03
2019-04-01T02:43:53.807Z,94.93
2019-04-01T02:44:54.376Z,94.93
2019-04-01T02:45:54.995Z,95.03
2019-04-01T02:46:55.613Z,95.03
2019-04-01T02:47:56.383Z,95.03
2019-04-01T02:48:56.955Z,94.83
2019-04-01T02:49:57.529Z,95.12
2019-04-01T02:50:58.098Z,95.03
2019-04-01T02:51:58.665Z,94.93
2019-04-01T02:52:59.284Z,95.03
2019-04-01T02:53:59.856Z,95.21
2019-04-01T02:55:01.038Z,95.12
2019-04-01T02:56:02.024Z,95.03
2019-04-01T02:57:02.574Z,95.12
2019-04-01T02:58:03.125Z,94.54
2019-04-01T02:59:03.713Z,94.73
2019-04-01T03:00:04.311Z,94.16
2019-04-01T03:01:04.880Z,94.35
2019-04-01T03:02:05.452Z,94.45
2019-04-01T03:03:06.115Z,94.16
2019-04-01T03:04:06.687Z,94.26
2019-04-01T03:05:07.366Z,94.26
2019-04-01T03:06:07.960Z,94.06
2019-04-01T03:07:08.590Z,94.54
2019-04-01T03:08:09.160Z,94.83
2019-04-01T03:09:09.768Z,94.06
2019-04-01T03:10:10.340Z,94.45
2019-04-01T03:11:11.229Z,94.06
2019-04-01T03:12:11.909Z,94.54
2019-04-01T03:13:12.474Z,94.73
2019-04-01T03:14:13.052Z,94.73
2019-04-01T03:15:13.610Z,94.73
2019-04-01T03:16:14.187Z,94.83
2019-04-01T03:17:14.767Z,94.83
2019-04-01T03:18:15.317Z,94.45
2019-04-01T03:19:15.939Z,94.93
2019-04-01T03:20:16.553Z,95.21
2019-04-01T03:21:17.122Z,94.73
2019-04-01T03:22:17.742Z,94.35
2019-04-01T03:23:18.314Z,94.35
2019-04-01T03:24:18.881Z,94.26
2019-04-01T03:25:19.450Z,94.26
2019-04-01T03:26:20.020Z,94.16
2019-04-01T03:27:20.589Z,93.96
2019-04-01T03:28:21.173Z,93.87
2019-04-01T03:29:21.778Z,93.87
2019-04-01T03:30:22.385Z,94.06
2019-04-01T03:31:22.955Z,94.45
2019-04-01T03:32:23.577Z,93.87
2019-04-01T03:33:24.185Z,93.19
2019-04-01T03:34:24.735Z,93.01
2019-04-01T03:35:25.340Z,93.01
2019-04-01T03:36:25.911Z,92.52
2019-04-01T03:37:26.625Z,92.52
2019-04-01T03:38:28.054Z,92.81
2019-04-01T03:39:28.767Z,92.33
2019-04-01T03:40:29.377Z,93.01
2019-04-01T03:41:29.949Z,92.62
2019-04-01T03:42:30.518Z,93.19
2019-04-01T03:43:31.086Z,92.43
2019-04-01T03:44:31.660Z,93.10
2019-04-01T03:45:32.313Z,93.19
2019-04-01T03:46:32.891Z,92.72
2019-04-01T03:47:33.500Z,92.72
2019-04-01T03:48:34.128Z,91.85
2019-04-01T03:49:34.694Z,92.05
2019-04-01T03:50:35.267Z,91.75
2019-04-01T03:51:35.871Z,91.95
2019-04-01T03:52:36.490Z,91.66
2019-04-01T03:53:37.058Z,91.47
2019-04-01T03:54:37.628Z,92.14
2019-04-01T03:55:38.197Z,91.95
2019-04-01T03:56:38.816Z,91.85
2019-04-01T03:57:39.384Z,91.95
2019-04-01T03:58:39.955Z,92.05
2019-04-01T03:59:40.578Z,91.95
2019-04-01T04:00:41.138Z,91.95
2019-04-01T04:01:41.708Z,92.33
2019-04-01T04:02:42.287Z,92.43
2019-04-01T04:03:42.849Z,91.85
2019-04-01T04:04:43.425Z,92.05
2019-04-01T04:05:43.987Z,91.85
2019-04-01T04:06:44.558Z,92.14
2019-04-01T04:07:45.130Z,92.43
2019-04-01T04:08:45.792Z,91.85
2019-04-01T04:09:46.359Z,92.43
2019-04-01T04:10:46.978Z,92.33
2019-04-01T04:11:47.549Z,92.05
2019-04-01T04:12:48.118Z,91.95
2019-04-01T04:13:48.691Z,91.95
2019-04-01T04:14:51.448Z,91.95
2019-04-01T04:15:49.916Z,91.47
2019-04-01T04:16:50.486Z,92.14
2019-04-01T04:17:51.112Z,91.37
2019-04-01T04:18:51.726Z,92.24
2019-04-01T04:19:52.290Z,91.56
2019-04-01T04:20:52.864Z,92.05
2019-04-01T04:21:53.433Z,92.05
2019-04-01T04:22:53.993Z,91.75
2019-04-01T04:23:54.616Z,91.95
2019-04-01T04:24:55.191Z,91.85
2019-04-01T04:25:55.854Z,92.05
2019-04-01T04:26:56.421Z,92.05
2019-04-01T04:27:56.991Z,91.66
2019-04-01T04:28:57.563Z,91.47
2019-04-01T04:29:58.171Z,91.56
2019-04-01T04:30:58.743Z,91.56
2019-04-01T04:31:59.367Z,91.85
2019-04-01T04:32:59.999Z,91.56
2019-04-01T04:34:00.599Z,91.75
2019-04-01T04:35:01.172Z,91.47
2019-04-01T04:36:01.740Z,92.33
2019-04-01T04:37:02.315Z,92.14
2019-04-01T04:38:02.879Z,92.33
2019-04-01T04:39:03.451Z,91.28
2019-04-01T04:40:04.019Z,92.14
2019-04-01T04:41:04.632Z,91.95
2019-04-01T04:42:05.202Z,91.66
2019-04-01T04:43:05.823Z,91.95
2019-04-01T04:44:06.393Z,92.24
2019-04-01T04:45:06.962Z,92.43
2019-04-01T04:46:07.532Z,92.24
2019-04-01T04:47:08.151Z,92.33
2019-04-01T04:48:08.720Z,91.95
2019-04-01T04:49:09.290Z,92.33
2019-04-01T04:50:09.860Z,92.14
2019-04-01T04:52:12.049Z,92.62
2019-04-01T04:56:29.485Z,92.24
2019-04-01T04:57:43.773Z,92.43
2019-04-01T04:58:44.349Z,92.24
2019-04-01T04:59:44.976Z,93.15
2019-04-01T05:00:45.552Z,93.19
2019-04-01T05:01:46.127Z,93.19
2019-04-01T05:02:46.709Z,92.10
2019-04-01T05:03:47.325Z,92.43
2019-04-01T05:04:47.906Z,92.29
2019-04-01T05:05:48.479Z,92.43
2019-04-01T05:12:58.609Z,91.56
2019-04-01T05:13:59.178Z,91.90
2019-04-01T05:14:59.743Z,92.00
2019-04-01T05:16:01.524Z,92.48
2019-04-01T05:17:15.884Z,92.29
2019-04-01T05:18:16.399Z,92.48
2019-04-01T05:19:16.966Z,92.10
2019-04-01T05:20:17.736Z,91.90
2019-04-01T05:21:18.452Z,92.00
2019-04-01T05:22:19.026Z,92.29
2019-04-01T05:23:19.588Z,92.00
2019-04-01T05:24:20.158Z,91.90
2019-04-01T05:25:20.767Z,92.29
2019-04-01T05:26:21.385Z,93.15
2019-04-01T05:27:21.983Z,92.48
2019-04-01T05:28:22.550Z,92.67
2019-04-01T05:29:23.119Z,92.57
2019-04-01T05:30:23.738Z,92.48
2019-04-01T05:31:24.395Z,92.48
2019-04-01T05:32:24.965Z,92.67
2019-04-01T05:33:25.537Z,92.86
2019-04-01T05:34:26.156Z,92.57
2019-04-01T05:35:26.780Z,92.67
2019-04-01T05:36:27.347Z,94.11
2019-04-01T05:37:27.913Z,92.86
2019-04-01T05:38:28.484Z,93.15
2019-04-01T05:39:29.052Z,93.05
2019-04-01T05:40:29.622Z,94.49
2019-04-01T05:41:30.194Z,93.05
2019-04-01T05:42:30.761Z,93.92
2019-04-01T05:43:31.387Z,94.49
2019-04-01T05:44:31.951Z,93.92
2019-04-01T05:45:32.522Z,92.86
2019-04-01T05:46:33.090Z,93.44
2019-04-01T05:47:33.711Z,94.21
2019-04-01T05:48:34.354Z,95.07
2019-04-01T05:49:34.874Z,94.21
2019-04-01T05:50:35.497Z,94.49
2019-04-01T05:51:36.065Z,94.01
2019-04-01T05:52:36.633Z,94.69
2019-04-01T05:53:37.203Z,95.07
2019-04-01T05:54:37.772Z,94.45
2019-04-01T05:55:38.340Z,93.73
2019-04-01T05:56:38.908Z,94.98
2019-04-01T05:57:39.478Z,93.25
2019-04-01T05:58:40.044Z,93.58
2019-04-01T05:59:40.612Z,93.92
2019-04-01T06:00:41.183Z,93.25
2019-04-01T06:01:41.825Z,93.15
2019-04-01T06:02:42.457Z,91.90
2019-04-01T06:03:42.976Z,92.29
2019-04-01T06:04:43.547Z,92.00
2019-04-01T06:05:44.116Z,92.38
2019-04-01T06:06:44.737Z,91.81
2019-04-01T06:07:45.305Z,92.48
2019-04-01T06:08:45.925Z,92.48
2019-04-01T06:09:46.494Z,92.10
2019-04-01T06:10:47.063Z,92.00
2019-04-01T06:11:47.644Z,92.48
2019-04-01T06:12:48.253Z,92.38
2019-04-01T06:13:48.868Z,92.57
2019-04-01T06:14:49.438Z,92.38
2019-04-01T06:15:50.010Z,92.96
2019-04-01T06:16:50.580Z,94.88
2019-04-01T06:17:51.147Z,93.34
2019-04-01T06:18:51.718Z,92.86
2019-04-01T06:19:52.289Z,92.67
2019-04-01T06:20:52.906Z,92.96
2019-04-01T06:21:53.475Z,92.67
2019-04-01T06:22:54.045Z,92.29
2019-04-01T06:23:54.764Z,92.10
2019-04-01T06:24:55.384Z,92.96
2019-04-01T06:25:56.002Z,92.38
2019-04-01T06:26:56.572Z,92.00
2019-04-01T06:27:57.144Z,93.05
2019-04-01T06:28:57.762Z,92.48
2019-04-01T06:29:59.326Z,93.54
2019-04-01T06:30:59.893Z,92.38
2019-04-01T06:32:00.464Z,92.48
2019-04-01T06:33:01.031Z,93.15
2019-04-01T06:34:01.651Z,92.38
2019-04-01T06:35:02.218Z,92.96
2019-04-01T06:36:02.787Z,92.48
2019-04-01T06:37:03.357Z,93.15
2019-04-01T06:38:03.927Z,92.38
2019-04-01T06:39:04.497Z,92.86
2019-04-01T06:40:05.067Z,93.05
2019-04-01T06:41:05.640Z,92.67
2019-04-01T06:42:07.333Z,92.67
2019-04-01T06:43:07.821Z,92.38
2019-04-01T06:44:08.390Z,92.38
2019-04-01T06:45:08.964Z,92.48
2019-04-01T06:46:09.528Z,92.96
2019-04-01T06:47:10.152Z,93.92
2019-04-01T06:48:10.902Z,93.25
2019-04-01T06:49:11.426Z,92.38
2019-04-01T06:50:11.997Z,92.77
2019-04-01T06:51:12.565Z,93.34
2019-04-01T06:52:13.135Z,93.25
2019-04-01T06:53:13.704Z,93.15
2019-04-01T06:54:14.272Z,94.49
2019-04-01T06:55:14.840Z,94.01
2019-04-01T06:56:15.408Z,93.82
2019-04-01T06:57:16.127Z,93.82
2019-04-01T06:58:16.697Z,94.01
2019-04-01T06:59:17.265Z,94.01
2019-04-01T07:00:17.836Z,93.15
2019-04-01T07:01:18.402Z,93.05
2019-04-01T07:02:18.974Z,93.15
2019-04-01T07:03:19.591Z,94.01
2019-04-01T07:04:20.162Z,94.01
2019-04-01T07:05:20.731Z,93.82
2019-04-01T07:06:21.308Z,93.15
2019-04-01T07:07:21.908Z,93.15
2019-04-01T07:08:22.478Z,92.96
2019-04-01T07:09:23.201Z,93.15
2019-04-01T07:10:25.022Z,93.15
2019-04-01T07:11:25.394Z,93.54
2019-04-01T07:12:25.942Z,94.01
2019-04-01T07:13:26.508Z,92.96
2019-04-01T07:14:27.077Z,93.63
2019-04-01T07:15:27.647Z,93.25
2019-04-01T07:16:28.218Z,93.15
2019-04-01T07:17:28.787Z,92.96
2019-04-01T07:18:29.358Z,93.15
2019-04-01T07:19:29.931Z,93.05
2019-04-01T07:20:30.542Z,93.92
2019-04-01T07:21:31.111Z,94.31
2019-04-01T07:22:31.680Z,92.96
2019-04-01T07:23:32.299Z,93.54
2019-04-01T07:24:32.868Z,93.92
2019-04-01T07:25:34.282Z,94.01
2019-04-01T07:26:34.883Z,93.44
2019-04-01T07:27:35.452Z,93.82
2019-04-01T07:28:36.025Z,93.82
2019-04-01T07:29:36.593Z,93.63
2019-04-01T07:30:37.162Z,94.21
2019-04-01T07:31:37.732Z,94.98
2019-04-01T07:32:38.301Z,94.11
2019-04-01T07:33:38.869Z,94.98
2019-04-01T07:34:39.491Z,94.78
2019-04-01T07:35:40.059Z,94.21
2019-04-01T07:36:40.678Z,94.69
2019-04-01T07:37:41.293Z,94.59
2019-04-01T07:38:41.859Z,93.82
2019-04-01T07:39:42.428Z,93.82
2019-04-01T07:40:42.997Z,92.77
2019-04-01T07:41:43.567Z,93.25
2019-04-01T07:42:44.135Z,93.05
2019-04-01T07:43:44.705Z,94.40
2019-04-01T07:44:45.273Z,94.98
2019-04-01T07:45:45.840Z,95.45
2019-04-01T07:46:46.411Z,94.01
2019-04-01T07:47:47.030Z,93.34
2019-04-01T07:48:47.598Z,93.34
2019-04-01T07:49:48.168Z,92.96
2019-04-01T07:50:48.738Z,93.34
2019-04-01T07:51:49.494Z,93.05
2019-04-01T07:52:50.022Z,93.25
2019-04-01T07:53:50.645Z,93.34
2019-04-01T07:54:51.212Z,93.05
2019-04-01T07:55:51.779Z,92.96
2019-04-01T07:56:52.348Z,93.54
2019-04-01T07:57:52.920Z,93.44
2019-04-01T07:58:53.488Z,93.34
2019-04-01T07:59:56.795Z,94.01
2019-04-01T08:00:55.621Z,93.25
2019-04-01T08:01:56.239Z,93.15
2019-04-01T08:02:56.808Z,93.25
2019-04-01T08:03:57.378Z,93.05
2019-04-01T08:04:57.948Z,92.96
2019-04-01T08:05:58.568Z,93.25
2019-04-01T08:06:59.134Z,92.96
2019-04-01T08:07:59.705Z,93.25
2019-04-01T08:09:00.274Z,93.44
2019-04-01T08:10:00.895Z,94.11
2019-04-01T08:11:01.463Z,93.25
2019-04-01T08:12:02.128Z,93.15
2019-04-01T08:13:02.697Z,93.05
2019-04-01T08:14:03.263Z,93.34
2019-04-01T08:15:03.884Z,93.15
2019-04-01T08:16:04.450Z,93.15
2019-04-01T08:17:05.021Z,93.82
2019-04-01T08:18:05.587Z,94.40
2019-04-01T08:19:06.158Z,92.86
2019-04-01T08:20:06.725Z,93.92
2019-04-01T08:21:07.297Z,93.87
2019-04-01T08:22:07.863Z,93.92
2019-04-01T08:23:08.450Z,93.92
2019-04-01T08:24:09.021Z,94.21
2019-04-01T08:25:09.589Z,94.06
2019-04-01T08:26:10.208Z,93.92
2019-04-01T08:27:10.826Z,93.92
2019-04-01T08:28:11.397Z,94.49
2019-04-01T08:29:11.965Z,93.82
2019-04-01T08:30:12.536Z,93.10
2019-04-01T08:31:13.520Z,93.87
2019-04-01T08:32:14.365Z,94.26
2019-04-01T08:37:05.121Z,93.96
2019-04-01T08:38:05.687Z,93.92
2019-04-01T08:41:13.450Z,95.03
2019-04-01T09:00:08.226Z,94.93
2019-04-01T09:01:08.793Z,94.73
2019-04-01T09:02:17.865Z,95.12
2019-04-01T09:03:10.989Z,94.93
2019-04-01T09:04:11.570Z,94.93
2019-04-01T09:05:12.190Z,94.16
2019-04-01T09:06:12.787Z,94.16
2019-04-01T09:07:13.440Z,94.73
2019-04-01T09:08:14.056Z,94.93
2019-04-01T09:10:51.344Z,95.12
2019-04-01T09:11:51.911Z,94.83
2019-04-01T09:12:52.525Z,94.73
2019-04-01T09:13:53.095Z,94.73
2019-04-01T09:14:53.662Z,94.45
2019-04-01T09:15:54.230Z,94.35
2019-04-01T09:16:54.816Z,95.21
2019-04-01T09:17:55.413Z,95.03
2019-04-01T09:18:56.130Z,93.96
2019-04-01T09:19:56.710Z,93.96
2019-04-01T09:20:57.378Z,93.96
2019-04-01T09:21:57.954Z,94.06
2019-04-01T09:22:59.382Z,94.06
2019-04-01T09:24:00.015Z,93.10
2019-04-01T09:25:00.589Z,92.43
2019-04-01T09:26:01.168Z,93.87
2019-04-01T09:27:01.745Z,94.54
2019-04-01T09:28:02.329Z,94.06
2019-04-01T09:29:02.897Z,94.45
2019-04-01T09:30:03.477Z,94.26
2019-04-01T09:31:04.100Z,94.26
2019-04-01T09:32:04.676Z,94.26
2019-04-01T09:33:05.255Z,94.16
2019-04-01T09:34:05.830Z,93.68
2019-04-01T09:35:06.408Z,93.58
2019-04-01T09:36:06.983Z,94.45
2019-04-01T09:37:07.561Z,93.87
2019-04-01T09:38:08.137Z,92.81
2019-04-01T09:39:08.715Z,93.29
2019-04-01T09:40:09.292Z,93.77
2019-04-01T09:41:13.141Z,93.01
2019-04-01T09:42:11.488Z,93.77
2019-04-01T09:43:14.129Z,93.96
2019-04-01T09:44:13.632Z,94.16
2019-04-01T09:45:14.211Z,93.49
2019-04-01T09:46:14.874Z,93.87
2019-04-01T09:47:15.501Z,93.58
2019-04-01T09:48:16.080Z,93.77
2019-04-01T09:49:16.652Z,93.96
2019-04-01T09:50:17.228Z,93.68
2019-04-01T09:51:17.804Z,93.87
2019-04-01T09:52:18.431Z,93.87
2019-04-01T09:53:19.007Z,94.06
2019-04-01T09:54:19.623Z,94.06
2019-04-01T09:55:20.196Z,94.16
2019-04-01T09:56:20.821Z,94.54
2019-04-01T09:57:21.400Z,94.54
2019-04-01T09:58:22.027Z,94.35
2019-04-01T09:59:22.599Z,94.06
2019-04-01T10:00:23.176Z,94.35
2019-04-01T10:01:23.754Z,94.83
2019-04-01T10:02:31.630Z,94.73
2019-04-01T10:03:25.900Z,93.87
2019-04-01T10:04:26.476Z,94.26
2019-04-01T10:05:27.052Z,94.73
2019-04-01T10:06:27.678Z,94.45
2019-04-01T10:07:28.272Z,95.21
2019-04-01T10:08:41.501Z,94.35
2019-04-01T10:09:30.439Z,94.35
2019-04-01T10:10:31.023Z,94.06
2019-04-01T10:11:31.591Z,94.59
2019-04-01T10:12:32.169Z,94.40
2019-04-01T10:13:32.748Z,94.26
2019-04-01T10:14:33.368Z,94.45
2019-04-01T10:15:33.943Z,94.16
2019-04-01T10:16:34.571Z,94.30
2019-04-01T10:17:35.145Z,93.24
2019-04-01T10:18:35.812Z,93.91
2019-04-01T10:19:36.389Z,93.96
2019-04-01T10:20:36.965Z,94.06
2019-04-01T10:21:37.594Z,94.26
2019-04-01T10:22:38.170Z,94.01
2019-04-01T10:23:38.792Z,94.49
2019-04-01T10:24:39.370Z,94.30
2019-04-01T10:25:40.030Z,94.30
2019-04-01T10:26:40.614Z,94.68
2019-04-01T10:27:41.190Z,94.01
2019-04-01T10:28:41.762Z,94.06
2019-04-01T10:29:42.419Z,94.01
2019-04-01T10:30:42.970Z,93.73
2019-04-01T10:31:43.598Z,94.11
2019-04-01T10:32:44.171Z,93.73
2019-04-01T10:33:44.747Z,93.15
2019-04-01T10:34:45.324Z,93.82
2019-04-01T10:35:45.898Z,92.19
2019-04-01T10:36:46.474Z,92.86
2019-04-01T10:37:47.054Z,93.34
2019-04-01T10:38:47.677Z,92.38
2019-04-01T10:39:48.302Z,92.38
2019-04-01T10:40:48.878Z,92.29
2019-04-01T10:41:49.450Z,92.09
2019-04-01T10:42:50.075Z,91.03
2019-04-01T10:43:50.658Z,91.95
2019-04-01T10:44:51.228Z,91.61
2019-04-01T10:45:52.007Z,91.42
2019-04-01T10:46:52.782Z,92.33
2019-04-01T10:47:53.407Z,92.96
2019-04-01T10:48:53.966Z,92.96
2019-04-01T10:49:54.549Z,92.76
2019-04-01T10:50:55.175Z,92.57
2019-04-01T10:51:55.730Z,92.86
2019-04-01T10:52:56.336Z,93.05
2019-04-01T10:53:56.982Z,92.57
2019-04-01T10:54:57.629Z,92.38
2019-04-01T10:55:58.173Z,92.29
2019-04-01T10:56:58.769Z,92.05
2019-04-01T10:57:59.337Z,92.09
2019-04-01T10:58:59.879Z,92.47
2019-04-01T11:00:00.495Z,92.67
2019-04-01T11:01:01.147Z,92.38
2019-04-01T11:02:01.899Z,92.38
2019-04-01T11:03:05.924Z,92.38
2019-04-01T11:04:04.088Z,92.29
2019-04-01T11:05:04.652Z,92.38
2019-04-01T11:06:05.258Z,92.72
2019-04-01T11:07:05.843Z,92.38
2019-04-01T11:08:06.435Z,92.38
2019-04-01T11:09:07.038Z,92.96
2019-04-01T11:10:11.108Z,92.52
2019-04-01T11:11:08.865Z,92.47
2019-04-01T11:12:09.441Z,92.38
2019-04-01T11:13:10.016Z,92.76
2019-04-01T11:14:10.642Z,92.38
2019-04-01T11:15:15.033Z,91.99
2019-04-01T11:16:12.793Z,92.76
2019-04-01T11:17:13.365Z,93.01
2019-04-01T11:18:13.940Z,93.34
2019-04-01T11:19:14.518Z,92.76
2019-04-01T11:20:15.169Z,93.19
2019-04-01T11:21:15.721Z,93.10
2019-04-01T11:22:16.298Z,93.24
2019-04-01T11:23:16.922Z,92.76
2019-04-01T11:24:17.499Z,93.15
2019-04-01T11:25:18.085Z,92.96
2019-04-01T11:26:18.654Z,93.24
2019-04-01T11:27:19.230Z,92.96
2019-04-01T11:28:19.855Z,93.53
2019-04-01T11:29:20.431Z,92.86
2019-04-01T11:30:26.412Z,93.44
2019-04-01T11:31:27.211Z,92.76
2019-04-01T11:32:27.917Z,93.53
2019-04-01T11:33:28.759Z,93.44
2019-04-01T11:34:29.327Z,92.57
2019-04-01T11:35:29.907Z,92.96
2019-04-01T11:36:30.511Z,93.39
2019-04-01T11:37:31.040Z,93.15
2019-04-01T11:38:31.722Z,93.05
2019-04-01T11:39:32.333Z,93.05
2019-04-01T11:40:32.917Z,93.05
2019-04-01T11:41:33.559Z,93.05
2019-04-01T11:42:34.294Z,93.24
2019-04-01T11:43:35.658Z,92.86
2019-04-01T11:44:36.419Z,92.76
2019-04-01T11:45:37.019Z,93.24
2019-04-01T11:46:37.612Z,92.91
2019-04-01T11:47:38.256Z,93.24
2019-04-01T11:48:38.850Z,93.05
2019-04-01T11:49:39.487Z,93.05
2019-04-01T11:50:40.065Z,93.44
2019-04-01T11:51:40.652Z,93.24
2019-04-01T11:52:41.211Z,93.10
2019-04-01T11:53:41.806Z,93.53
2019-04-01T11:54:42.382Z,93.53
2019-04-01T11:55:42.969Z,93.44
2019-04-01T11:56:43.534Z,93.44
2019-04-01T11:57:44.111Z,93.73
2019-04-01T11:58:44.687Z,93.63
2019-04-01T11:59:45.306Z,93.49
2019-04-01T12:00:45.933Z,93.24
2019-04-01T12:01:47.325Z,93.15
2019-04-01T12:02:48.024Z,93.19
2019-04-01T12:03:48.600Z,93.24
2019-04-01T12:04:49.273Z,94.01
2019-04-01T12:05:49.848Z,94.11
2019-04-01T12:06:50.423Z,93.82
2019-04-01T12:07:50.999Z,93.96
2019-04-01T12:08:51.623Z,93.91
2019-04-01T12:09:52.512Z,94.11
2019-04-01T12:10:53.080Z,94.11
2019-04-01T12:11:53.661Z,94.01
2019-04-01T12:12:54.276Z,94.01
2019-04-01T12:13:54.852Z,93.63
2019-04-01T12:14:55.428Z,94.01
2019-04-01T12:15:56.004Z,93.91
2019-04-01T12:16:56.657Z,94.01
2019-04-01T12:17:57.234Z,94.11
2019-04-01T12:18:57.811Z,94.11
2019-04-01T12:19:58.386Z,94.68
2019-04-01T12:20:58.960Z,94.30
2019-04-01T12:21:59.537Z,94.40
2019-04-01T12:23:00.113Z,94.21
2019-04-01T12:24:00.688Z,94.49
2019-04-01T12:25:01.266Z,94.30
2019-04-01T12:26:14.323Z,94.16
2019-04-01T12:27:02.549Z,94.30
2019-04-01T12:28:03.226Z,94.01
2019-04-01T12:29:03.820Z,94.49
2019-04-01T12:30:04.595Z,95.17
2019-04-01T12:31:05.204Z,95.07
2019-04-01T12:32:05.781Z,95.26
2019-04-01T12:33:06.356Z,94.78
2019-04-01T12:34:06.998Z,94.98
2019-04-01T12:35:07.541Z,95.03
2019-04-01T12:36:11.450Z,94.78
2019-04-01T12:37:09.737Z,94.88
2019-04-01T12:38:10.311Z,94.98
2019-04-01T12:39:10.888Z,95.07
2019-04-01T12:40:11.472Z,94.98
2019-04-01T12:41:12.038Z,95.03
2019-04-01T12:42:12.612Z,94.98
2019-04-01T12:43:13.187Z,95.03
2019-04-01T12:44:13.761Z,95.17
2019-04-01T12:45:14.387Z,94.78
2019-04-01T12:46:15.013Z,94.64
2019-04-01T12:47:15.587Z,94.93
2019-04-01T12:48:16.162Z,94.54
2019-04-01T12:49:16.739Z,95.12
2019-04-01T12:50:17.314Z,95.12
2019-04-01T12:51:17.888Z,94.93
2019-04-01T12:52:18.514Z,94.83
2019-04-01T12:53:19.092Z,94.93
2019-04-01T12:54:19.675Z,94.83
2019-04-01T12:55:20.334Z,94.93
2019-04-01T12:56:20.911Z,95.21
2019-04-01T12:57:21.488Z,94.73
2019-04-01T12:58:25.184Z,95.03
2019-04-01T12:59:24.368Z,95.12
2019-04-01T13:00:24.910Z,95.12
2019-04-01T13:01:25.491Z,94.98
2019-04-01T13:02:26.066Z,95.12
2019-04-01T13:03:26.640Z,95.03
2019-04-01T13:04:27.218Z,94.93
2019-04-01T13:05:27.792Z,94.98
2019-04-01T13:06:28.367Z,94.83
2019-04-01T13:07:28.943Z,95.12
2019-04-01T13:08:29.519Z,95.07
2019-04-01T13:09:30.093Z,94.83
2019-04-01T13:10:30.720Z,94.83
2019-04-01T13:11:31.296Z,95.21
2019-04-01T13:12:31.873Z,95.12
2019-04-01T13:13:32.445Z,95.21
2019-04-01T13:14:33.023Z,95.31
2019-04-01T13:15:33.596Z,95.12
2019-04-01T13:16:34.172Z,95.03
2019-04-01T13:17:35.041Z,95.12
2019-04-01T13:18:38.055Z,95.50
2019-04-01T13:19:36.931Z,95.21
2019-04-01T13:20:38.477Z,95.50
2019-04-01T13:21:40.109Z,95.21
2019-04-01T13:22:40.853Z,95.12
2019-04-01T13:23:41.428Z,95.31
2019-04-01T13:24:42.009Z,95.12
2019-04-01T13:25:42.585Z,95.31
2019-04-01T13:26:43.200Z,95.31
2019-04-01T13:27:43.774Z,96.17
2019-04-01T13:28:44.355Z,95.40
2019-04-01T13:29:44.932Z,95.79
2019-04-01T13:30:45.556Z,96.37
2019-04-01T13:31:46.134Z,95.89
2019-04-01T13:32:46.711Z,96.17
2019-04-01T13:33:47.288Z,95.89
2019-04-01T13:34:47.864Z,96.08
2019-04-01T13:35:48.491Z,95.98
2019-04-01T13:36:49.257Z,96.47